createdAt,value
2022-12-18T00:00:10.451Z,-4.20
2022-12-18T00:02:45.778Z,-4.30
2022-12-18T00:07:42.897Z,-4.30
2022-12-18T00:10:11.370Z,-4.10
2022-12-18T00:12:45.339Z,-4.40
2022-12-18T00:15:13.615Z,-4.40
2022-12-18T00:17:41.947Z,-4.10
2022-12-18T00:20:11.398Z,-4.30
2022-12-18T00:22:40.792Z,-4.10
2022-12-18T00:25:10.398Z,-4.30
2022-12-18T00:27:38.876Z,-4.40
2022-12-18T00:30:09.828Z,-4.10
2022-12-18T00:32:38.450Z,-4.20
2022-12-18T00:35:07.805Z,-3.90
2022-12-18T00:37:36.184Z,-4.10
2022-12-18T00:40:04.566Z,-4.00
2022-12-18T00:42:50.066Z,-4.30
2022-12-18T00:45:19.803Z,-4.10
2022-12-18T00:47:48.271Z,-4.20
2022-12-18T00:50:16.897Z,-4.10
2022-12-18T00:52:45.105Z,-4.00
2022-12-18T00:55:14.188Z,-4.20
2022-12-18T00:57:42.787Z,-4.10
2022-12-18T01:00:13.924Z,-4.10
2022-12-18T01:05:15.378Z,-4.20
2022-12-18T01:07:43.737Z,-4.90
2022-12-18T01:10:15.737Z,-4.20
2022-12-18T01:12:43.989Z,-4.00
2022-12-18T01:15:14.039Z,-3.90
2022-12-18T01:32:37.382Z,-4.20
2022-12-18T01:35:06.602Z,-4.50
2022-12-18T01:37:36.149Z,-4.60
2022-12-18T01:40:05.783Z,-4.50
2022-12-18T01:42:33.922Z,-4.50
2022-12-18T01:45:08.553Z,-4.60
2022-12-18T01:47:41.204Z,-4.60
2022-12-18T01:50:13.816Z,-4.60
2022-12-18T01:52:44.718Z,-4.40
2022-12-18T01:55:14.539Z,-4.60
2022-12-18T01:57:43.459Z,-4.60
2022-12-18T02:00:15.159Z,-4.50
2022-12-18T02:05:17.063Z,-4.50
2022-12-18T02:07:58.282Z,-4.80
2022-12-18T02:10:31.691Z,-4.90
2022-12-18T02:13:07.243Z,-4.90
2022-12-18T02:15:41.406Z,-4.80
2022-12-18T02:18:14.237Z,-4.90
2022-12-18T02:23:31.596Z,-4.70
2022-12-18T02:26:08.534Z,-4.90
2022-12-18T02:28:41.390Z,-4.90
2022-12-18T02:31:16.223Z,-5.00
2022-12-18T02:33:46.921Z,-4.80
2022-12-18T02:36:17.745Z,-4.90
2022-12-18T02:38:48.027Z,-4.80
2022-12-18T02:41:20.105Z,-4.80
2022-12-18T02:43:50.099Z,-4.90
2022-12-18T02:46:32.678Z,-4.70
2022-12-18T02:49:23.075Z,-5.10
2022-12-18T02:51:55.565Z,-5.10
2022-12-18T02:54:45.984Z,-5.00
2022-12-18T02:57:26.712Z,-4.70
2022-12-18T03:00:00.595Z,-5.00
2022-12-18T03:02:35.973Z,-4.70
2022-12-18T03:05:09.684Z,-4.80
2022-12-18T03:07:41.188Z,-4.80
2022-12-18T03:10:16.583Z,-4.80
2022-12-18T03:12:52.349Z,-4.80
2022-12-18T03:15:26.177Z,-4.70
2022-12-18T03:18:05.145Z,-4.70
2022-12-18T03:20:36.174Z,-4.70
2022-12-18T03:23:09.351Z,-4.80
2022-12-18T03:25:42.381Z,-4.80
2022-12-18T03:28:16.734Z,-4.90
2022-12-18T03:30:48.893Z,-4.80
2022-12-18T03:33:21.562Z,-5.00
2022-12-18T03:35:52.676Z,-4.70
2022-12-18T03:38:21.460Z,-4.80
2022-12-18T03:41:03.030Z,-4.70
2022-12-18T03:43:47.521Z,-4.60
2022-12-18T03:46:22.569Z,-4.60
2022-12-18T03:48:58.199Z,-4.70
2022-12-18T03:51:32.696Z,-4.60
2022-12-18T03:54:02.345Z,-4.90
2022-12-18T03:56:46.335Z,-4.50
2022-12-18T03:59:18.135Z,-4.70
2022-12-18T04:01:50.498Z,-4.70
2022-12-18T04:04:20.739Z,-4.60
2022-12-18T04:06:51.395Z,-4.80
2022-12-18T04:09:22.145Z,-4.60
2022-12-18T04:11:50.907Z,-4.80
2022-12-18T04:14:20.471Z,-4.70
2022-12-18T04:16:53.088Z,-4.90
2022-12-18T04:19:25.728Z,-5.00
2022-12-18T04:32:12.463Z,-4.80
2022-12-18T04:42:16.390Z,-4.70
2022-12-18T04:44:45.843Z,-4.80
2022-12-18T04:59:36.333Z,-4.80
2022-12-18T05:02:06.005Z,-4.70
2022-12-18T05:04:34.204Z,-4.80
2022-12-18T05:07:02.331Z,-4.70
2022-12-18T05:17:00.651Z,-4.70
2022-12-18T05:21:59.581Z,-4.40
2022-12-18T05:24:28.089Z,-4.60
2022-12-18T05:26:56.646Z,-4.80
2022-12-18T05:34:21.953Z,-4.80
2022-12-18T05:44:16.802Z,-4.80
2022-12-18T05:54:12.398Z,-4.60
2022-12-18T05:59:16.734Z,-4.80
2022-12-18T06:01:45.373Z,-4.70
2022-12-18T06:04:13.796Z,-4.90
2022-12-18T06:06:42.174Z,-4.80
2022-12-18T06:09:10.605Z,-4.90
2022-12-18T06:29:04.247Z,-4.60
2022-12-18T06:31:32.733Z,-4.60
2022-12-18T07:18:56.707Z,-4.60
2022-12-18T09:16:32.198Z,-4.70
2022-12-18T09:19:01.693Z,-4.30
2022-12-18T09:21:32.702Z,-4.20
2022-12-18T09:24:04.384Z,-4.30
2022-12-18T09:26:33.534Z,-4.40
2022-12-18T09:29:01.902Z,-4.40
2022-12-18T09:31:32.057Z,-4.20
2022-12-18T09:34:00.371Z,-4.10
2022-12-18T09:36:28.714Z,-4.20
2022-12-18T09:38:56.881Z,-4.20
2022-12-18T09:41:55.367Z,-4.30
2022-12-18T09:44:27.169Z,-4.30
2022-12-18T09:47:06.077Z,-4.10
2022-12-18T11:01:14.368Z,-4.10
2022-12-18T11:08:44.495Z,-3.70
2022-12-18T11:11:22.314Z,-3.80
2022-12-18T11:16:32.860Z,-4.00
2022-12-18T11:19:23.613Z,-4.20
2022-12-18T11:21:52.019Z,-3.80
2022-12-18T12:31:33.700Z,-3.70
2022-12-18T12:34:12.315Z,-3.80
2022-12-18T12:37:00.807Z,-3.70
2022-12-18T12:39:32.850Z,-3.80
2022-12-18T12:42:18.830Z,-3.50
2022-12-18T12:44:56.354Z,-3.70
2022-12-18T12:47:30.834Z,-3.80
2022-12-18T15:03:28.916Z,-3.80
